createdAt,value
2018-07-14T00:02:02.840Z,13.40
2018-07-14T00:04:31.510Z,12.90
2018-07-14T00:07:00.173Z,13.00
2018-07-14T00:09:28.950Z,12.80
2018-07-14T00:11:57.599Z,13.60
2018-07-14T00:14:26.633Z,12.67
2018-07-14T00:16:55.788Z,12.83
2018-07-14T00:19:24.444Z,13.60
2018-07-14T00:21:53.425Z,13.50
2018-07-14T00:24:23.548Z,13.10
2018-07-14T00:26:52.815Z,13.70
2018-07-14T00:29:21.469Z,13.53
2018-07-14T00:31:50.145Z,13.20
2018-07-14T00:34:18.801Z,13.60
2018-07-14T00:36:47.485Z,13.63
2018-07-14T00:39:16.114Z,13.80
2018-07-14T00:41:45.136Z,13.70
2018-07-14T00:44:13.849Z,12.97
2018-07-14T00:46:43.169Z,12.93
2018-07-14T00:49:12.392Z,13.50
2018-07-14T00:51:41.556Z,13.67
2018-07-14T00:54:10.168Z,13.77
2018-07-14T00:56:38.861Z,13.40
2018-07-14T00:59:07.843Z,14.20
2018-07-14T01:01:36.907Z,12.83
2018-07-14T01:04:05.569Z,15.17
2018-07-14T01:06:34.338Z,14.17
2018-07-14T01:09:03.184Z,13.60
2018-07-14T01:11:32.134Z,13.63
2018-07-14T01:14:01.039Z,13.90
2018-07-14T01:16:30.000Z,13.37
2018-07-14T01:18:58.620Z,14.70
2018-07-14T01:21:27.685Z,13.77
2018-07-14T01:23:56.368Z,13.93
2018-07-14T01:26:25.074Z,14.97
2018-07-14T01:28:54.246Z,14.20
2018-07-14T01:31:23.019Z,15.00
2018-07-14T01:33:51.690Z,14.90
2018-07-14T01:36:20.304Z,14.90
2018-07-14T01:38:49.221Z,14.40
2018-07-14T01:41:18.198Z,15.27
2018-07-14T01:43:47.806Z,15.50
2018-07-14T01:46:16.516Z,15.93
2018-07-14T01:48:45.177Z,15.10
2018-07-14T01:51:14.230Z,16.30
2018-07-14T01:53:43.430Z,15.80
2018-07-14T01:56:12.324Z,15.17
2018-07-14T01:58:41.007Z,14.93
2018-07-14T02:01:09.925Z,14.90
2018-07-14T02:03:39.327Z,14.93
2018-07-14T02:06:07.985Z,16.00
2018-07-14T02:08:36.701Z,17.40
2018-07-14T02:11:05.668Z,14.73
2018-07-14T02:13:34.364Z,15.93
2018-07-14T02:16:03.072Z,15.10
2018-07-14T02:18:32.655Z,16.37
2018-07-14T02:21:01.580Z,14.70
2018-07-14T02:23:30.299Z,16.33
2018-07-14T02:25:58.892Z,16.80
2018-07-14T02:28:27.492Z,16.20
2018-07-14T02:30:56.142Z,16.40
2018-07-14T02:33:25.923Z,15.67
2018-07-14T02:35:55.116Z,16.70
2018-07-14T02:38:24.266Z,16.10
2018-07-14T02:40:52.900Z,16.10
2018-07-14T02:43:22.197Z,17.10
2018-07-14T02:45:51.081Z,16.83
2018-07-14T02:48:19.719Z,16.90
2018-07-14T02:50:48.658Z,16.47
2018-07-14T02:53:17.591Z,17.40
2018-07-14T02:55:46.577Z,16.30
2018-07-14T02:58:15.213Z,16.77
2018-07-14T03:00:44.235Z,16.80
2018-07-14T03:03:13.482Z,17.90
2018-07-14T03:05:42.237Z,16.90
2018-07-14T03:08:11.816Z,17.60
2018-07-14T03:10:40.511Z,17.47
2018-07-14T03:13:09.148Z,16.57
2018-07-14T03:15:37.846Z,17.30
2018-07-14T03:18:07.093Z,17.67
2018-07-14T03:20:36.066Z,17.20
2018-07-14T03:23:04.934Z,17.30
2018-07-14T03:25:33.624Z,17.37
2018-07-14T03:28:02.241Z,17.07
2018-07-14T03:30:30.881Z,20.90
2018-07-14T03:32:59.546Z,18.60
2018-07-14T03:35:28.920Z,18.53
2018-07-14T03:37:57.532Z,17.77
2018-07-14T03:40:26.204Z,17.93
2018-07-14T03:42:55.657Z,17.03
2018-07-14T03:45:24.618Z,17.40
2018-07-14T03:47:53.243Z,16.97
2018-07-14T03:50:21.850Z,17.10
2018-07-14T03:52:50.779Z,18.57
2018-07-14T03:55:19.435Z,17.87
2018-07-14T03:57:48.114Z,17.57
2018-07-14T04:00:16.809Z,16.60
2018-07-14T04:02:45.771Z,18.30
2018-07-14T04:05:14.402Z,18.30
2018-07-14T04:07:43.095Z,17.37
2018-07-14T04:10:12.057Z,17.60
2018-07-14T04:12:40.695Z,18.20
2018-07-14T04:15:09.322Z,17.10
2018-07-14T04:17:37.948Z,18.03
2018-07-14T04:20:06.931Z,17.90
2018-07-14T04:22:35.569Z,17.80
2018-07-14T04:25:04.488Z,17.13
2018-07-14T04:27:33.786Z,17.70
2018-07-14T04:30:02.468Z,17.00
2018-07-14T04:32:31.087Z,17.93
2018-07-14T04:35:00.054Z,18.63
2018-07-14T04:37:29.071Z,16.37
2018-07-14T04:39:58.092Z,18.60
2018-07-14T04:42:26.901Z,18.03
2018-07-14T04:44:55.852Z,17.97
2018-07-14T04:47:25.220Z,18.10
2018-07-14T04:49:53.905Z,17.93
2018-07-14T04:52:23.139Z,17.33
2018-07-14T04:54:51.817Z,17.33
2018-07-14T04:57:20.753Z,18.37
2018-07-14T04:59:49.721Z,18.30
2018-07-14T05:02:18.632Z,17.80
2018-07-14T05:04:47.324Z,19.57
2018-07-14T05:07:16.934Z,17.90
2018-07-14T05:09:46.571Z,18.83
2018-07-14T05:12:17.242Z,18.20
2018-07-14T05:14:46.713Z,18.10
2018-07-14T05:17:16.803Z,18.07
2018-07-14T05:19:45.859Z,16.80
2018-07-14T05:22:16.504Z,18.70
2018-07-14T05:24:46.286Z,18.20
2018-07-14T05:27:15.149Z,17.80
2018-07-14T05:29:43.767Z,17.50
2018-07-14T05:32:12.426Z,17.07
2018-07-14T05:34:41.008Z,18.60
2018-07-14T05:37:09.953Z,17.70
2018-07-14T05:39:38.618Z,18.97
2018-07-14T05:42:07.268Z,18.20
2018-07-14T05:44:35.928Z,17.67
2018-07-14T05:47:04.590Z,17.20
2018-07-14T05:49:33.362Z,18.80
2018-07-14T05:52:02.092Z,18.17
2018-07-14T05:54:30.730Z,16.33
2018-07-14T05:56:59.388Z,18.10
2018-07-14T05:59:27.986Z,16.47
2018-07-14T06:01:56.644Z,18.53
2018-07-14T06:04:25.258Z,17.17
2018-07-14T06:06:54.294Z,17.03
2018-07-14T06:09:23.064Z,16.57
2018-07-14T06:11:51.711Z,17.40
2018-07-14T06:14:21.235Z,17.80
2018-07-14T06:16:50.247Z,17.47
2018-07-14T06:19:18.905Z,16.27
2018-07-14T06:21:48.473Z,16.57
2018-07-14T06:24:17.184Z,16.17
2018-07-14T06:26:45.871Z,16.80
2018-07-14T06:29:14.556Z,17.60
2018-07-14T06:31:43.212Z,16.97
2018-07-14T06:34:11.852Z,17.17
2018-07-14T06:36:40.688Z,16.50
2018-07-14T06:39:09.642Z,19.17
2018-07-14T06:41:38.296Z,17.73
2018-07-14T06:44:06.958Z,18.10
2018-07-14T06:46:36.020Z,18.97
2018-07-14T06:49:04.641Z,18.73
2018-07-14T06:51:33.354Z,19.50
2018-07-14T06:54:02.269Z,17.50
2018-07-14T06:56:30.956Z,17.50
2018-07-14T06:58:59.806Z,17.47
2018-07-14T07:01:28.776Z,17.10
2018-07-14T07:03:57.999Z,18.70
2018-07-14T07:06:26.850Z,16.60
2018-07-14T07:08:55.827Z,16.20
2018-07-14T07:11:26.012Z,16.93
2018-07-14T07:13:58.575Z,15.27
2018-07-14T07:16:28.101Z,15.40
2018-07-14T07:18:56.863Z,15.27
2018-07-14T07:21:26.385Z,15.20
2018-07-14T07:23:55.980Z,14.97
2018-07-14T07:26:25.533Z,15.40
2018-07-14T07:28:55.747Z,16.07
2018-07-14T07:31:25.341Z,16.07
2018-07-14T07:33:57.018Z,15.23
2018-07-14T07:36:25.075Z,15.27
2018-07-14T07:38:54.058Z,15.70
2018-07-14T07:41:22.699Z,15.10
2018-07-14T07:43:51.736Z,14.87
2018-07-14T07:46:20.711Z,14.97
2018-07-14T07:48:49.454Z,15.10
2018-07-14T07:51:18.303Z,17.40
2018-07-14T07:53:46.961Z,16.87
2018-07-14T07:56:16.812Z,14.60
2018-07-14T07:58:45.504Z,14.90
2018-07-14T08:01:14.180Z,14.47
2018-07-14T08:03:43.502Z,15.37
2018-07-14T08:06:12.580Z,16.10
2018-07-14T08:08:41.293Z,16.47
2018-07-14T08:11:10.074Z,15.60
2018-07-14T08:13:39.067Z,15.00
2018-07-14T08:16:08.205Z,15.67
2018-07-14T08:18:38.098Z,16.23
2018-07-14T08:21:07.889Z,14.73
2018-07-14T08:23:36.947Z,16.00
2018-07-14T08:26:05.969Z,15.43
2018-07-14T08:28:34.858Z,16.43
2018-07-14T08:31:03.614Z,15.27
2018-07-14T08:33:32.687Z,15.13
2018-07-14T08:36:02.625Z,13.93
2018-07-14T08:38:31.373Z,15.10
2018-07-14T08:41:00.129Z,15.07
2018-07-14T08:43:28.884Z,14.60
2018-07-14T08:45:57.556Z,14.37
2018-07-14T08:48:26.215Z,14.33
2018-07-14T08:50:56.579Z,13.57
2018-07-14T08:53:25.277Z,14.07
2018-07-14T08:55:54.159Z,14.87
2018-07-14T08:58:26.975Z,13.30
2018-07-14T09:00:56.021Z,12.03
2018-07-14T09:03:25.188Z,13.30
2018-07-14T09:05:56.827Z,14.20
2018-07-14T09:08:26.151Z,13.20
2018-07-14T09:11:00.177Z,13.93
2018-07-14T09:13:28.830Z,13.57
2018-07-14T09:15:57.546Z,12.80
2018-07-14T09:18:26.545Z,12.00
2018-07-14T09:20:55.331Z,13.57
2018-07-14T09:23:24.039Z,13.13
2018-07-14T09:25:52.682Z,13.10
2018-07-14T09:28:21.702Z,12.30
2018-07-14T09:30:50.510Z,12.40
2018-07-14T09:33:19.534Z,12.60
2018-07-14T09:35:49.007Z,12.30
2018-07-14T09:38:18.994Z,12.37
2018-07-14T09:40:48.161Z,12.77
2018-07-14T09:43:18.021Z,11.93
2018-07-14T09:45:48.746Z,13.20
2018-07-14T09:48:17.741Z,12.67
2018-07-14T09:50:46.412Z,12.33
2018-07-14T09:53:15.051Z,12.40
2018-07-14T09:55:44.543Z,11.63
2018-07-14T09:58:14.692Z,12.80
2018-07-14T10:00:49.111Z,12.70
2018-07-14T10:03:17.787Z,12.67
2018-07-14T10:05:46.958Z,12.20
2018-07-14T10:08:16.361Z,11.77
2018-07-14T10:10:45.130Z,12.10
2018-07-14T10:13:13.884Z,12.90
2018-07-14T10:15:42.559Z,15.03
2018-07-14T10:18:11.278Z,12.47
2018-07-14T10:20:40.288Z,11.93
2018-07-14T10:23:09.081Z,11.67
2018-07-14T10:25:37.815Z,13.10
2018-07-14T10:28:06.555Z,12.30
2018-07-14T10:30:35.574Z,11.50
2018-07-14T10:33:04.282Z,11.87
2018-07-14T10:35:35.599Z,12.73
2018-07-14T10:38:04.661Z,12.00
2018-07-14T10:40:33.415Z,11.97
2018-07-14T10:43:02.799Z,12.23
2018-07-14T10:45:31.649Z,11.73
2018-07-14T10:48:00.395Z,11.60
2018-07-14T10:50:29.192Z,12.57
2018-07-14T10:52:58.563Z,12.50
2018-07-14T10:55:29.452Z,12.47
2018-07-14T10:57:58.147Z,12.83
2018-07-14T11:00:27.615Z,11.80
2018-07-14T11:02:56.437Z,12.10
2018-07-14T11:05:25.379Z,12.40
2018-07-14T11:07:55.526Z,11.63
2018-07-14T11:10:24.516Z,13.00
2018-07-14T11:12:53.303Z,12.27
2018-07-14T11:15:22.064Z,11.97
2018-07-14T11:17:50.954Z,12.17
2018-07-14T11:20:19.867Z,11.80
2018-07-14T11:22:48.835Z,11.70
2018-07-14T11:25:17.583Z,11.53
2018-07-14T11:27:46.344Z,12.40
2018-07-14T11:30:15.452Z,12.87
2018-07-14T11:32:45.633Z,11.10
2018-07-14T11:35:15.377Z,12.43
2018-07-14T11:37:44.775Z,11.23
2018-07-14T11:40:14.430Z,11.03
2018-07-14T11:42:44.119Z,12.90
2018-07-14T11:45:13.806Z,12.17
2018-07-14T11:47:42.516Z,11.77
2018-07-14T11:50:11.446Z,12.20
2018-07-14T11:52:40.160Z,12.07
2018-07-14T11:55:09.238Z,12.30
2018-07-14T11:57:37.920Z,11.80
2018-07-14T12:00:07.525Z,12.07
2018-07-14T12:02:36.170Z,11.83
2018-07-14T12:05:05.271Z,11.03
2018-07-14T12:07:34.050Z,11.60
2018-07-14T12:10:05.473Z,10.90
2018-07-14T12:12:34.789Z,11.70
2018-07-14T12:15:04.347Z,10.90
2018-07-14T12:17:33.090Z,10.70
2018-07-14T12:20:02.031Z,11.20
2018-07-14T12:22:30.846Z,10.60
2018-07-14T12:24:59.746Z,10.30
2018-07-14T12:27:28.549Z,10.43
2018-07-14T12:29:57.529Z,9.93
2018-07-14T12:32:26.524Z,9.60
2018-07-14T12:34:55.524Z,9.43
2018-07-14T12:37:24.220Z,9.20
2018-07-14T12:39:52.938Z,9.20
2018-07-14T12:42:24.952Z,9.60
2018-07-14T12:44:53.948Z,9.65
2018-07-14T12:47:22.658Z,9.85
2018-07-14T12:49:51.390Z,9.35
2018-07-14T12:52:20.546Z,9.15
2018-07-14T12:54:49.463Z,9.33
2018-07-14T12:57:18.115Z,9.58
2018-07-14T12:59:46.909Z,8.85
2018-07-14T13:02:15.926Z,9.15
2018-07-14T13:04:45.891Z,9.25
2018-07-14T13:07:14.780Z,8.95
2018-07-14T13:09:43.440Z,9.18
2018-07-14T13:12:15.557Z,9.03
2018-07-14T13:14:44.508Z,8.95
2018-07-14T13:17:13.429Z,9.63
2018-07-14T13:19:42.184Z,9.50
2018-07-14T13:22:13.688Z,9.28
2018-07-14T13:24:42.339Z,9.60
2018-07-14T13:27:11.113Z,9.40
2018-07-14T13:29:40.262Z,9.40
2018-07-14T13:32:08.970Z,9.30
2018-07-14T13:34:37.875Z,9.38
2018-07-14T13:37:06.926Z,9.58
2018-07-14T13:39:36.235Z,9.45
2018-07-14T13:42:05.356Z,9.13
2018-07-14T13:44:34.126Z,9.20
2018-07-14T13:47:03.057Z,10.25
2018-07-14T13:49:32.389Z,9.53
2018-07-14T13:52:01.238Z,9.83
2018-07-14T13:54:30.310Z,10.20
2018-07-14T13:56:59.301Z,9.60
2018-07-14T13:59:28.275Z,9.60
2018-07-14T14:01:57.279Z,8.90
2018-07-14T14:04:26.001Z,8.58
2018-07-14T14:06:55.060Z,8.90
2018-07-14T14:09:24.706Z,8.78
2018-07-14T14:11:54.097Z,8.88
2018-07-14T14:14:23.136Z,9.20
2018-07-14T14:16:52.332Z,9.00
2018-07-14T14:19:21.180Z,8.90
2018-07-14T14:21:50.030Z,8.55
2018-07-14T14:24:18.714Z,8.45
2018-07-14T14:26:47.966Z,9.05
2018-07-14T14:29:16.752Z,9.08
2018-07-14T14:31:47.004Z,9.53
2018-07-14T14:34:15.798Z,9.00
2018-07-14T14:36:45.402Z,8.58
2018-07-14T14:39:14.051Z,9.08
2018-07-14T14:41:43.655Z,9.50
2018-07-14T14:44:12.362Z,9.65
2018-07-14T14:46:41.432Z,9.20
2018-07-14T14:49:10.116Z,9.70
2018-07-14T14:51:38.877Z,9.80
2018-07-14T14:54:07.598Z,9.77
2018-07-14T14:56:36.583Z,9.70
2018-07-14T14:59:05.625Z,9.50
2018-07-14T15:01:34.627Z,10.10
2018-07-14T15:04:03.385Z,9.70
2018-07-14T15:06:32.913Z,9.80
2018-07-14T15:09:01.707Z,9.70
2018-07-14T15:11:32.261Z,10.10
2018-07-14T15:14:00.978Z,9.87
2018-07-14T15:16:30.653Z,9.90
2018-07-14T15:18:59.960Z,9.50
2018-07-14T15:21:29.098Z,9.93
2018-07-14T15:23:58.086Z,10.17
2018-07-14T15:26:27.014Z,10.03
2018-07-14T15:28:56.587Z,10.00
2018-07-14T15:31:25.244Z,9.90
2018-07-14T15:33:53.896Z,9.73
2018-07-14T15:36:22.615Z,9.40
2018-07-14T15:38:51.671Z,9.80
2018-07-14T15:41:20.357Z,9.87
2018-07-14T15:43:49.150Z,10.20
2018-07-14T15:46:17.829Z,9.30
2018-07-14T15:48:46.549Z,9.77
2018-07-14T15:51:15.242Z,9.60
2018-07-14T15:53:44.119Z,10.03
2018-07-14T15:56:12.814Z,9.90
2018-07-14T15:58:41.621Z,9.60
2018-07-14T16:01:10.310Z,9.53
2018-07-14T16:03:39.881Z,9.60
2018-07-14T16:06:09.285Z,9.33
2018-07-14T16:08:38.059Z,9.60
2018-07-14T16:11:07.742Z,9.70
2018-07-14T16:13:36.687Z,9.60
2018-07-14T16:16:06.175Z,9.73
2018-07-14T16:18:34.990Z,10.00
2018-07-14T16:21:04.226Z,10.00
2018-07-14T16:23:32.944Z,9.20
2018-07-14T16:26:01.869Z,9.87
2018-07-14T16:28:30.596Z,10.00
2018-07-14T16:30:59.305Z,9.67
2018-07-14T16:33:28.401Z,9.13
2018-07-14T16:35:57.176Z,9.50
2018-07-14T16:38:25.808Z,9.63
2018-07-14T16:40:54.771Z,9.90
2018-07-14T16:43:23.798Z,9.73
2018-07-14T16:45:52.574Z,9.63
2018-07-14T16:48:21.601Z,9.50
2018-07-14T16:50:50.386Z,9.60
2018-07-14T16:53:19.427Z,10.10
2018-07-14T16:55:48.237Z,9.70
2018-07-14T16:58:17.247Z,9.73
2018-07-14T17:00:46.099Z,9.77
2018-07-14T17:03:14.860Z,9.77
2018-07-14T17:05:43.677Z,9.97
2018-07-14T17:08:12.668Z,9.87
2018-07-14T17:10:43.140Z,9.70
2018-07-14T17:13:12.405Z,9.60
2018-07-14T17:15:41.396Z,9.50
2018-07-14T17:18:11.151Z,9.93
2018-07-14T17:20:39.885Z,9.17
2018-07-14T17:23:13.497Z,9.53
2018-07-14T17:25:42.252Z,9.20
2018-07-14T17:28:11.006Z,10.83
2018-07-14T17:30:40.012Z,9.43
2018-07-14T17:33:08.719Z,9.80
2018-07-14T17:35:37.579Z,9.40
2018-07-14T17:38:06.635Z,9.57
2018-07-14T17:40:35.337Z,9.73
2018-07-14T17:43:04.104Z,9.53
2018-07-14T17:45:34.151Z,9.67
2018-07-14T17:48:02.865Z,9.43
2018-07-14T17:50:31.882Z,9.30
2018-07-14T17:53:00.920Z,9.37
2018-07-14T17:55:29.685Z,9.33
2018-07-14T17:57:58.834Z,9.50
2018-07-14T18:00:27.544Z,9.40
2018-07-14T18:02:56.825Z,9.60
2018-07-14T18:05:25.576Z,9.60
2018-07-14T18:07:54.349Z,9.87
2018-07-14T18:10:23.261Z,9.60
2018-07-14T18:12:51.935Z,9.20
2018-07-14T18:15:20.649Z,9.33
2018-07-14T18:17:49.601Z,9.77
2018-07-14T18:20:18.731Z,9.73
2018-07-14T18:22:47.490Z,9.60
2018-07-14T18:25:16.262Z,9.73
2018-07-14T18:27:44.950Z,10.00
2018-07-14T18:30:13.683Z,9.10
2018-07-14T18:32:42.656Z,9.63
2018-07-14T18:35:11.408Z,9.17
2018-07-14T18:37:40.511Z,9.43
2018-07-14T18:40:09.189Z,9.10
2018-07-14T18:42:37.977Z,9.70
2018-07-14T18:45:06.700Z,9.40
2018-07-14T18:47:35.854Z,9.43
2018-07-14T18:50:04.760Z,9.43
2018-07-14T18:52:34.425Z,9.50
2018-07-14T18:55:03.279Z,9.57
2018-07-14T18:57:31.965Z,9.63
2018-07-14T19:00:00.996Z,8.93
2018-07-14T19:02:29.812Z,9.10
2018-07-14T19:04:59.085Z,9.50
2018-07-14T19:07:28.086Z,9.73
2018-07-14T19:09:56.756Z,9.70
2018-07-14T19:12:25.799Z,9.20
2018-07-14T19:14:54.516Z,9.40
2018-07-14T19:17:23.912Z,10.07
2018-07-14T19:19:52.734Z,9.30
2018-07-14T19:22:21.970Z,9.50
2018-07-14T19:24:50.752Z,9.30
2018-07-14T19:27:19.502Z,9.67
2018-07-14T19:29:48.527Z,9.90
2018-07-14T19:32:17.232Z,10.07
2018-07-14T19:34:45.861Z,10.07
2018-07-14T19:37:16.348Z,9.63
2018-07-14T19:39:45.437Z,10.03
2018-07-14T19:42:14.258Z,10.10
2018-07-14T19:44:43.307Z,9.57
2018-07-14T19:47:12.021Z,9.60
2018-07-14T19:49:41.093Z,10.00
2018-07-14T19:52:09.783Z,9.80
2018-07-14T19:54:38.753Z,10.90
2018-07-14T19:57:07.891Z,9.10
2018-07-14T19:59:36.627Z,11.03
2018-07-14T20:02:05.641Z,12.53
2018-07-14T20:04:34.269Z,11.00
2018-07-14T20:07:02.907Z,9.93
2018-07-14T20:09:31.619Z,9.43
2018-07-14T20:12:00.847Z,9.37
2018-07-14T20:14:30.196Z,9.93
2018-07-14T20:16:58.887Z,10.07
2018-07-14T20:19:27.553Z,9.53
2018-07-14T20:21:57.334Z,10.30
2018-07-14T20:24:26.567Z,9.60
2018-07-14T20:26:55.272Z,9.83
2018-07-14T20:29:23.977Z,10.07
2018-07-14T20:31:52.689Z,10.40
2018-07-14T20:34:21.358Z,9.27
2018-07-14T20:36:50.451Z,9.47
2018-07-14T20:39:19.498Z,10.40
2018-07-14T20:41:48.326Z,9.73
2018-07-14T20:44:17.344Z,9.70
2018-07-14T20:46:46.138Z,10.20
2018-07-14T20:49:14.846Z,9.80
2018-07-14T20:51:44.316Z,9.93
2018-07-14T20:54:13.036Z,10.27
2018-07-14T20:56:41.831Z,9.70
2018-07-14T20:59:10.563Z,9.87
2018-07-14T21:01:39.791Z,10.13
2018-07-14T21:04:08.786Z,9.60
2018-07-14T21:06:37.527Z,9.57
2018-07-14T21:09:07.052Z,9.87
2018-07-14T21:11:35.942Z,9.70
2018-07-14T21:14:04.714Z,8.90
2018-07-14T21:16:33.758Z,9.50
2018-07-14T21:19:02.895Z,9.67
2018-07-14T21:21:31.679Z,9.33
2018-07-14T21:24:00.472Z,9.20
2018-07-14T21:26:29.380Z,9.20
2018-07-14T21:28:58.610Z,9.93
2018-07-14T21:31:27.340Z,9.43
2018-07-14T21:33:56.166Z,9.13
2018-07-14T21:36:24.989Z,9.30
2018-07-14T21:38:54.079Z,9.10
2018-07-14T21:41:23.124Z,9.03
2018-07-14T21:43:51.812Z,9.13
2018-07-14T21:46:20.622Z,9.73
2018-07-14T21:48:49.468Z,9.87
2018-07-14T21:51:18.326Z,8.70
2018-07-14T21:53:48.315Z,8.90
2018-07-14T21:56:17.028Z,8.67
2018-07-14T21:58:45.936Z,8.73
2018-07-14T22:01:20.017Z,8.87
2018-07-14T22:03:49.454Z,8.97
2018-07-14T22:06:18.198Z,8.90
2018-07-14T22:08:46.941Z,8.67
2018-07-14T22:11:15.921Z,9.43
2018-07-14T22:13:45.225Z,9.00
2018-07-14T22:16:14.177Z,8.73
2018-07-14T22:18:42.931Z,8.83
2018-07-14T22:21:11.742Z,8.80
2018-07-14T22:23:40.720Z,8.40
2018-07-14T22:26:14.598Z,8.57
2018-07-14T22:28:44.223Z,8.80
2018-07-14T22:31:13.213Z,8.97
2018-07-14T22:33:44.223Z,9.03
2018-07-14T22:36:12.956Z,8.83
2018-07-14T22:38:42.658Z,9.40
2018-07-14T22:41:12.415Z,9.10
2018-07-14T22:43:41.203Z,9.20
2018-07-14T22:46:12.517Z,8.90
2018-07-14T22:48:42.073Z,8.63
2018-07-14T22:51:12.139Z,8.70
2018-07-14T22:53:40.855Z,8.20
2018-07-14T22:56:09.454Z,9.17
2018-07-14T22:58:38.816Z,10.60
2018-07-14T23:01:07.660Z,9.30
2018-07-14T23:03:36.448Z,9.23
2018-07-14T23:06:06.772Z,8.87
2018-07-14T23:08:36.395Z,9.30
2018-07-14T23:11:06.877Z,8.90
2018-07-14T23:13:36.624Z,9.10
2018-07-14T23:16:06.053Z,9.47
2018-07-14T23:18:35.080Z,8.87
2018-07-14T23:21:03.731Z,9.30
2018-07-14T23:23:32.831Z,8.80
2018-07-14T23:26:01.510Z,9.10
2018-07-14T23:28:30.191Z,8.90
2018-07-14T23:30:58.835Z,9.00
2018-07-14T23:33:27.479Z,9.53
2018-07-14T23:35:56.917Z,9.03
2018-07-14T23:38:25.860Z,9.47
2018-07-14T23:40:54.559Z,9.20
2018-07-14T23:43:23.213Z,9.10
2018-07-14T23:45:51.899Z,9.20
2018-07-14T23:48:21.056Z,9.07
2018-07-14T23:50:49.691Z,8.93
2018-07-14T23:53:18.392Z,8.93
2018-07-14T23:55:47.014Z,9.20
2018-07-14T23:58:15.698Z,9.13
